This is the latest recevied weather packets stored in our database for station/object DB0TGO-14. If no packets are shown the sender has not sent any weather packets the latest 1 day(s).
| Time | Temp. | Humidity | Pressure | Rain* | Wind** | Luminosity | Snow |
|---|---|---|---|---|---|---|---|
| 1778017620 | 12.78° C | 92% | 1008.5 hPa | 0 mm | 1.34 m/s, 45° | - | - |
| 1778017515 | 12.78° C | 92% | 1008.5 hPa | 0 mm | 1.34 m/s, 68° | - | - |
| 1778017405 | 12.78° C | 92% | 1008.5 hPa | 0 mm | 1.34 m/s, 22° | - | - |
| 1778017356 | 12.78° C | 92% | 1008.5 hPa | 0 mm | 1.34 m/s, 68° | - | - |
| 1778017295 | 12.78° C | 92% | 1008.4 hPa | 0 mm | 1.34 m/s, 68° | - | - |
| 1778017184 | 12.78° C | 92% | 1008.5 hPa | 0 mm | 1.34 m/s, 45° | - | - |
| 1778017065 | 12.78° C | 92% | 1008.5 hPa | 0 mm | 1.34 m/s, 45° | - | - |
| 1778016949 | 12.78° C | 92% | 1008.4 hPa | 0 mm | 1.34 m/s, 22° | - | - |
| 1778016850 | 12.78° C | 92% | 1008.4 hPa | 0 mm | 1.79 m/s, 45° | - | - |
| 1778016730 | 12.78° C | 92% | 1008.5 hPa | 0 mm | 1.79 m/s, 45° | - | - |
| 1778016625 | 12.78° C | 92% | 1008.4 hPa | 0 mm | 1.34 m/s, 22° | - | - |
| 1778016518 | 12.78° C | 92% | 1008.5 hPa | 0 mm | 1.34 m/s, 22° | - | - |
| 1778016405 | 12.78° C | 92% | 1008.5 hPa | 0 mm | 1.34 m/s, 45° | - | - |
| 1778016292 | 12.78° C | 92% | 1008.5 hPa | 0 mm | 1.34 m/s, 68° | - | - |
| 1778016244 | 12.78° C | 92% | 1008.6 hPa | 0 mm | 1.34 m/s, 22° | - | - |
| 1778016180 | 12.78° C | 92% | 1008.6 hPa | 0 mm | 1.34 m/s, 68° | - | - |
| 1778016082 | 12.78° C | 92% | 1008.6 hPa | 0 mm | 1.79 m/s, 90° | - | - |
| 1778015974 | 12.78° C | 92% | 1008.6 hPa | 0 mm | 1.34 m/s, 22° | - | - |
| 1778015860 | 12.78° C | 92% | 1008.6 hPa | 0 mm | 1.34 m/s, 68° | - | - |
| 1778015763 | 12.78° C | 92% | 1008.5 hPa | 0 mm | 1.34 m/s, 315° | - | - |
| 1778015665 | 12.78° C | 92% | 1008.7 hPa | 0 mm | 1.34 m/s, 45° | - | - |
| 1778015569 | 12.78° C | 92% | 1008.8 hPa | 0 mm | 0.89 m/s, 22° | - | - |
| 1778015472 | 12.78° C | 92% | 1008.7 hPa | 0 mm | 0.89 m/s, 45° | - | - |
| 1778015359 | 12.78° C | 92% | 1008.7 hPa | 0 mm | 0.89 m/s, 45° | - | - |
| 1778015321 | 12.78° C | 92% | 1008.7 hPa | 0 mm | 0.89 m/s, 45° | - | - |
* Rain latest hour (hover to see other rain measurements)
** Current wind speed in m/s (hover to see current wind gust speed)